Time;durP1;ratioP1;P1;durP2;ratioP2;P2;SDS_P1;SDS_P2;PMS_P1;PMS_P2;Temp;Humidity;BMP_temperature;BMP_pressure;BME280_temperature;BME280_humidity;BME280_pressure;Samples;Min_cycle;Max_cycle;Signal;HPM_P1;HPM_P2
2022/03/23 00:01:37;;;;;;;;;;;7.90;99.90;;;;;;5092152;28;20346;-47
2022/03/23 00:04:03;;;;;;;;;;;7.90;99.90;;;;;;5092428;28;19909;-49
2022/03/23 00:06:28;;;;;;;;;;;7.80;99.90;;;;;;5092675;28;20252;-47
2022/03/23 00:08:54;;;;;;;;;;;7.80;99.90;;;;;;5091842;28;19909;-47
2022/03/23 00:11:19;;;;;;;;;;;7.80;99.90;;;;;;5092062;28;19918;-48
2022/03/23 00:13:45;;;;;;;;;;;7.70;99.90;;;;;;5092459;28;19908;-51
2022/03/23 00:16:10;;;;;;;;;;;7.70;99.90;;;;;;5091880;28;19923;-47
2022/03/23 00:18:36;;;;;;;;;;;7.60;99.90;;;;;;5092457;28;19912;-48
2022/03/23 00:21:01;;;;;;;;;;;7.50;99.90;;;;;;5092273;28;20480;-49
2022/03/23 00:23:27;;;;;;;;;;;7.50;99.90;;;;;;5091953;28;20343;-47
2022/03/23 00:25:53;;;;;;;;;;;7.50;99.90;;;;;;5095201;28;19916;-47
2022/03/23 00:28:19;;;;;;;;;;;7.50;99.90;;;;;;5096231;28;19915;-50
2022/03/23 00:30:45;;;;;;;;;;;7.50;99.90;;;;;;5095886;28;19908;-47
2022/03/23 00:33:11;;;;;;;;;;;7.50;99.90;;;;;;5095876;28;19947;-47
2022/03/23 00:35:36;;;;;;;;;;;7.50;99.90;;;;;;5096153;28;20270;-48
2022/03/23 00:38:01;;;;;;;;;;;7.50;99.90;;;;;;5095368;28;20430;-48
2022/03/23 00:40:30;;;;;;;;;;;7.50;99.90;;;;;;5095102;28;19919;-47
2022/03/23 00:42:56;;;;;;;;;;;7.40;99.90;;;;;;5095624;28;19908;-47
2022/03/23 00:45:22;;;;;;;;;;;7.50;99.90;;;;;;5095569;28;19912;-46
2022/03/23 00:47:48;;;;;;;;;;;7.50;99.90;;;;;;5095602;28;19908;-47
2022/03/23 00:50:14;;;;;;;;;;;7.50;99.90;;;;;;5095984;28;19908;-47
2022/03/23 00:52:40;;;;;;;;;;;7.40;99.90;;;;;;5095267;28;19908;-47
2022/03/23 00:55:09;;;;;;;;;;;7.30;99.90;;;;;;5095537;28;19912;-47
2022/03/23 00:57:38;;;;;;;;;;;7.30;99.90;;;;;;5095674;28;19952;-47
2022/03/23 01:00:06;;;;;;;;;;;7.40;99.90;;;;;;5094940;28;19908;-50
2022/03/23 01:02:32;;;;;;;;;;;7.40;99.90;;;;;;5095573;28;19912;-48
2022/03/23 01:04:58;;;;;;;;;;;7.40;99.90;;;;;;5094940;28;19958;-48
2022/03/23 01:07:23;;;;;;;;;;;7.50;99.90;;;;;;5095403;28;19952;-47
2022/03/23 01:09:49;;;;;;;;;;;7.50;99.90;;;;;;5094756;28;19958;-47
2022/03/23 01:12:14;;;;;;;;;;;7.60;99.90;;;;;;5094982;28;19908;-47
2022/03/23 01:14:40;;;;;;;;;;;7.50;99.90;;;;;;5095480;28;19931;-48
2022/03/23 01:17:06;;;;;;;;;;;7.40;99.90;;;;;;5095048;28;19920;-47
2022/03/23 01:19:31;;;;;;;;;;;7.40;99.90;;;;;;5094651;28;19922;-48
2022/03/23 01:21:57;;;;;;;;;;;7.20;99.90;;;;;;5095086;28;19994;-48
2022/03/23 01:24:22;;;;;;;;;;;7.10;99.90;;;;;;5095262;28;19916;-48
2022/03/23 01:26:48;;;;;;;;;;;7.00;99.90;;;;;;5094327;28;19908;-48
2022/03/23 01:29:13;;;;;;;;;;;6.80;99.90;;;;;;5095145;28;19915;-47
2022/03/23 01:31:39;;;;;;;;;;;6.70;99.90;;;;;;5094781;28;19920;-47
2022/03/23 01:34:04;;;;;;;;;;;6.60;99.90;;;;;;5094304;28;19912;-46
2022/03/23 01:36:30;;;;;;;;;;;6.60;99.90;;;;;;5094678;28;19961;-46
2022/03/23 01:38:56;;;;;;;;;;;6.50;99.90;;;;;;5094334;28;19912;-47
2022/03/23 01:41:22;;;;;;;;;;;6.50;99.90;;;;;;5094444;28;19951;-48
2022/03/23 01:43:47;;;;;;;;;;;6.50;99.90;;;;;;5094531;28;20430;-48
2022/03/23 01:46:15;;;;;;;;;;;6.50;99.90;;;;;;5094860;28;20377;-47
2022/03/23 01:48:40;;;;;;;;;;;6.40;99.90;;;;;;5093960;28;19943;-50
2022/03/23 01:51:06;;;;;;;;;;;6.40;99.90;;;;;;5094335;28;19939;-48
2022/03/23 01:53:31;;;;;;;;;;;6.40;99.90;;;;;;5094528;28;19913;-48
2022/03/23 01:55:57;;;;;;;;;;;6.40;99.90;;;;;;5093665;28;19969;-46
2022/03/23 01:58:23;;;;;;;;;;;6.40;99.90;;;;;;5094138;28;19912;-47
2022/03/23 02:00:48;;;;;;;;;;;6.40;99.90;;;;;;5093872;28;19985;-47
2022/03/23 02:03:14;;;;;;;;;;;6.40;99.90;;;;;;5094039;28;19908;-48
2022/03/23 02:05:39;;;;;;;;;;;6.40;99.90;;;;;;5094430;28;19914;-49
2022/03/23 02:08:05;;;;;;;;;;;6.40;99.90;;;;;;5093633;28;19934;-47
2022/03/23 02:10:31;;;;;;;;;;;6.40;99.90;;;;;;5094251;28;19919;-47
2022/03/23 02:12:56;;;;;;;;;;;6.40;99.90;;;;;;5093997;28;19908;-47
2022/03/23 02:15:24;;;;;;;;;;;6.40;99.90;;;;;;5093712;28;19920;-47
2022/03/23 02:17:53;;;;;;;;;;;6.30;99.90;;;;;;5093937;28;19919;-48
2022/03/23 02:20:19;;;;;;;;;;;6.30;99.90;;;;;;5094216;28;19940;-48
2022/03/23 02:22:44;;;;;;;;;;;6.20;99.90;;;;;;5093545;28;19912;-48
2022/03/23 02:25:10;;;;;;;;;;;6.20;99.90;;;;;;5093911;28;19916;-48
2022/03/23 02:27:36;;;;;;;;;;;6.10;99.90;;;;;;5093606;28;19912;-48
2022/03/23 02:30:03;;;;;;;;;;;6.10;99.90;;;;;;5091179;28;19935;-47
2022/03/23 02:32:29;;;;;;;;;;;6.10;99.90;;;;;;5093020;28;20260;-47
2022/03/23 02:34:54;;;;;;;;;;;6.00;99.90;;;;;;5093466;28;20397;-48
2022/03/23 02:37:20;;;;;;;;;;;6.00;99.90;;;;;;5093158;28;19981;-47
2022/03/23 02:39:45;;;;;;;;;;;6.00;99.90;;;;;;5093435;28;19908;-51
2022/03/23 02:42:11;;;;;;;;;;;6.00;99.90;;;;;;5093857;28;19919;-47
2022/03/23 02:44:36;;;;;;;;;;;6.00;99.90;;;;;;5093141;28;19958;-49
2022/03/23 02:47:03;;;;;;;;;;;5.90;99.90;;;;;;5092455;28;19911;-48
2022/03/23 02:49:28;;;;;;;;;;;6.00;99.90;;;;;;5093382;28;19912;-47
2022/03/23 02:51:53;;;;;;;;;;;6.00;99.90;;;;;;5092615;28;19919;-47
2022/03/23 03:02:40;;;;;;;;;;;6.00;99.90;;;;;;5093816;28;19919;-47
2022/03/23 03:05:07;;;;;;;;;;;5.90;99.90;;;;;;5092645;28;19908;-47
2022/03/23 03:08:44;;;;;;;;;;;5.90;99.90;;;;;;5092630;28;20026;-47
2022/03/23 03:10:19;;;;;;;;;;;5.90;99.90;;;;;;5093101;28;19908;-48
2022/03/23 03:12:46;;;;;;;;;;;5.90;99.90;;;;;;5092512;28;19915;-47
2022/03/23 03:15:12;;;;;;;;;;;5.90;99.90;;;;;;5093143;28;19922;-47
2022/03/23 03:17:38;;;;;;;;;;;5.90;99.90;;;;;;5093181;28;19916;-48
2022/03/23 03:20:04;;;;;;;;;;;5.90;99.90;;;;;;5092280;28;19908;-47
2022/03/23 03:22:38;;;;;;;;;;;5.80;99.90;;;;;;5093316;28;19944;-47
2022/03/23 03:25:04;;;;;;;;;;;5.80;99.90;;;;;;5092307;28;19922;-47
2022/03/23 03:27:30;;;;;;;;;;;5.70;99.90;;;;;;5092405;28;20340;-47
2022/03/23 03:29:56;;;;;;;;;;;5.70;99.90;;;;;;5092709;28;19908;-47
2022/03/23 03:32:21;;;;;;;;;;;5.60;99.90;;;;;;5092824;28;20382;-47
2022/03/23 03:34:47;;;;;;;;;;;5.60;99.90;;;;;;5092128;28;19978;-48
2022/03/23 03:37:12;;;;;;;;;;;5.40;99.90;;;;;;5092534;28;19923;-47
2022/03/23 03:39:37;;;;;;;;;;;5.30;99.90;;;;;;5092481;28;19917;-48
2022/03/23 03:42:04;;;;;;;;;;;5.30;99.90;;;;;;5092356;28;19908;-47
2022/03/23 03:44:29;;;;;;;;;;;5.20;99.90;;;;;;5092844;28;19944;-48
2022/03/23 03:46:54;;;;;;;;;;;5.00;99.90;;;;;;5092033;28;20325;-48
2022/03/23 03:49:20;;;;;;;;;;;5.00;99.90;;;;;;5092612;28;19908;-47
2022/03/23 03:51:45;;;;;;;;;;;4.90;99.90;;;;;;5092679;28;19969;-49
2022/03/23 03:54:11;;;;;;;;;;;4.90;99.90;;;;;;5092314;28;19958;-47
2022/03/23 03:56:36;;;;;;;;;;;5.00;99.90;;;;;;5092701;28;19960;-47
2022/03/23 03:59:02;;;;;;;;;;;5.10;99.90;;;;;;5094087;28;20007;-47
2022/03/23 04:01:27;;;;;;;;;;;5.10;99.90;;;;;;5096392;28;19915;-47
2022/03/23 04:03:53;;;;;;;;;;;5.10;99.90;;;;;;5096586;28;20389;-49
2022/03/23 04:06:18;;;;;;;;;;;5.10;99.90;;;;;;5096868;28;20316;-47
2022/03/23 04:08:44;;;;;;;;;;;5.10;99.90;;;;;;5095767;28;19912;-46
2022/03/23 04:11:10;;;;;;;;;;;5.10;99.90;;;;;;5096452;28;19915;-46
2022/03/23 04:13:35;;;;;;;;;;;5.10;99.90;;;;;;5096662;28;19908;-47
2022/03/23 04:16:01;;;;;;;;;;;5.10;99.90;;;;;;5095671;28;19916;-46
2022/03/23 04:18:27;;;;;;;;;;;5.10;99.90;;;;;;5096597;28;20006;-47
2022/03/23 04:20:52;;;;;;;;;;;5.10;99.90;;;;;;5096136;28;19915;-47
2022/03/23 04:23:17;;;;;;;;;;;5.10;99.90;;;;;;5095929;28;19908;-47
2022/03/23 04:25:43;;;;;;;;;;;5.10;99.90;;;;;;5096359;28;19912;-48
2022/03/23 04:28:08;;;;;;;;;;;5.00;99.90;;;;;;5095695;28;19916;-47
2022/03/23 04:30:34;;;;;;;;;;;5.00;99.90;;;;;;5095861;28;19908;-48
2022/03/23 04:33:00;;;;;;;;;;;5.00;99.90;;;;;;5095735;28;19924;-48
2022/03/23 04:35:26;;;;;;;;;;;5.00;99.90;;;;;;5096146;28;20003;-48
2022/03/23 04:37:52;;;;;;;;;;;4.90;99.90;;;;;;5095409;28;19916;-51
2022/03/23 04:40:18;;;;;;;;;;;5.00;99.90;;;;;;5095937;28;20408;-48
2022/03/23 04:42:44;;;;;;;;;;;5.00;99.90;;;;;;5096089;28;19908;-52
2022/03/23 04:45:10;;;;;;;;;;;5.00;99.90;;;;;;5095550;28;19911;-49
2022/03/23 04:47:39;;;;;;;;;;;5.00;99.90;;;;;;5095866;28;19957;-49
2022/03/23 04:50:06;;;;;;;;;;;5.00;99.90;;;;;;5095104;28;19957;-49
2022/03/23 04:52:32;;;;;;;;;;;5.00;99.90;;;;;;5095888;28;19912;-51
2022/03/23 04:54:57;;;;;;;;;;;5.00;99.90;;;;;;5095491;28;20292;-49
2022/03/23 04:57:23;;;;;;;;;;;4.90;99.90;;;;;;5095296;28;20002;-52
2022/03/23 04:59:49;;;;;;;;;;;4.90;99.90;;;;;;5095546;28;19943;-49
2022/03/23 05:02:14;;;;;;;;;;;4.80;99.90;;;;;;5095647;28;19940;-49
2022/03/23 05:04:40;;;;;;;;;;;4.80;99.90;;;;;;5095181;28;19908;-51
2022/03/23 05:07:05;;;;;;;;;;;4.80;99.90;;;;;;5094988;28;19916;-50
2022/03/23 05:09:31;;;;;;;;;;;4.70;99.90;;;;;;5095536;28;20397;-52
2022/03/23 05:11:56;;;;;;;;;;;4.70;99.90;;;;;;5094142;28;19951;-49
2022/03/23 05:14:21;;;;;;;;;;;4.70;99.90;;;;;;5095557;28;20355;-51
2022/03/23 05:16:47;;;;;;;;;;;4.70;99.90;;;;;;5095104;28;20428;-50
2022/03/23 05:19:13;;;;;;;;;;;4.70;99.90;;;;;;5095112;28;20232;-47
2022/03/23 05:21:38;;;;;;;;;;;4.60;99.90;;;;;;5095368;28;20416;-50
2022/03/23 05:24:04;;;;;;;;;;;4.60;99.90;;;;;;5094891;28;19912;-51
2022/03/23 05:26:29;;;;;;;;;;;4.50;99.90;;;;;;5094191;28;19912;-51
2022/03/23 05:28:55;;;;;;;;;;;4.50;99.90;;;;;;5094729;28;19918;-51
2022/03/23 05:31:21;;;;;;;;;;;4.40;99.90;;;;;;5094904;28;20406;-49
2022/03/23 05:33:47;;;;;;;;;;;4.40;99.90;;;;;;5094341;28;19909;-50
2022/03/23 05:36:13;;;;;;;;;;;4.50;99.90;;;;;;5094916;28;19977;-51
2022/03/23 05:38:39;;;;;;;;;;;4.60;99.90;;;;;;5094964;28;19915;-49
2022/03/23 05:41:04;;;;;;;;;;;4.60;99.90;;;;;;5094000;28;20500;-51
2022/03/23 05:43:30;;;;;;;;;;;4.60;99.90;;;;;;5095108;28;19936;-51
2022/03/23 05:45:55;;;;;;;;;;;4.60;99.90;;;;;;5094365;28;19908;-51
2022/03/23 05:48:21;;;;;;;;;;;4.60;99.90;;;;;;5093914;28;20003;-49
2022/03/23 05:50:46;;;;;;;;;;;4.70;99.90;;;;;;5094491;28;19928;-51
2022/03/23 05:53:12;;;;;;;;;;;4.60;99.90;;;;;;5094092;28;19916;-52
2022/03/23 05:55:37;;;;;;;;;;;4.70;99.90;;;;;;5094644;28;19915;-49
2022/03/23 05:58:03;;;;;;;;;;;4.60;99.90;;;;;;5094311;28;19990;-52
2022/03/23 06:00:29;;;;;;;;;;;4.60;99.90;;;;;;5094172;28;19916;-50
2022/03/23 06:02:55;;;;;;;;;;;4.60;99.90;;;;;;5094182;28;19908;-52
2022/03/23 06:05:20;;;;;;;;;;;4.60;99.90;;;;;;5094397;28;20442;-51
2022/03/23 06:07:46;;;;;;;;;;;4.50;99.90;;;;;;5093282;28;20011;-52
2022/03/23 06:10:12;;;;;;;;;;;4.50;99.90;;;;;;5094224;28;19958;-49
2022/03/23 06:12:37;;;;;;;;;;;4.60;99.90;;;;;;5094329;28;19939;-49
2022/03/23 06:15:03;;;;;;;;;;;4.60;99.90;;;;;;5093398;28;19915;-52
2022/03/23 06:17:29;;;;;;;;;;;4.60;99.90;;;;;;5094075;28;20330;-52
2022/03/23 06:19:54;;;;;;;;;;;4.70;99.90;;;;;;5093459;28;19912;-51
2022/03/23 06:22:20;;;;;;;;;;;4.70;99.90;;;;;;5108002;28;19907;-52
2022/03/23 06:24:45;;;;;;;;;;;4.80;99.90;;;;;;5112422;28;20296;-51
2022/03/23 06:27:11;;;;;;;;;;;4.80;99.90;;;;;;5091192;28;19988;-52
2022/03/23 06:29:37;;;;;;;;;;;4.90;99.90;;;;;;5095281;28;19912;-48
2022/03/23 06:32:03;;;;;;;;;;;4.90;99.90;;;;;;5113576;28;20355;-51
2022/03/23 06:34:28;;;;;;;;;;;5.00;99.90;;;;;;5104918;28;19912;-50
2022/03/23 06:36:54;;;;;;;;;;;5.00;99.90;;;;;;5090094;28;19920;-53
2022/03/23 06:39:19;;;;;;;;;;;5.10;99.90;;;;;;5089612;28;20007;-52
2022/03/23 06:41:45;;;;;;;;;;;5.10;99.90;;;;;;5091766;28;19963;-53
2022/03/23 06:44:11;;;;;;;;;;;5.20;99.90;;;;;;5100081;28;19908;-49
2022/03/23 06:46:37;;;;;;;;;;;5.20;99.90;;;;;;5093732;28;20056;-52
2022/03/23 06:49:02;;;;;;;;;;;5.30;99.90;;;;;;5092294;28;20007;-49
2022/03/23 06:51:28;;;;;;;;;;;5.40;99.90;;;;;;5090601;28;19912;-51
2022/03/23 06:53:54;;;;;;;;;;;5.50;99.90;;;;;;5090985;28;19912;-53
2022/03/23 06:56:19;;;;;;;;;;;5.60;99.90;;;;;;5093413;28;19923;-51
2022/03/23 06:58:44;;;;;;;;;;;5.70;99.90;;;;;;5093002;28;19908;-52
2022/03/23 07:01:10;;;;;;;;;;;5.80;99.90;;;;;;5093226;28;19993;-50
2022/03/23 07:03:35;;;;;;;;;;;5.90;99.90;;;;;;5092914;28;19912;-51
2022/03/23 07:06:01;;;;;;;;;;;6.00;99.90;;;;;;5093021;28;19908;-53
2022/03/23 07:11:10;;;;;;;;;;;6.30;99.90;;;;;;5072429;28;20310;-52
2022/03/23 07:13:36;;;;;;;;;;;6.50;99.90;;;;;;5073078;28;19999;-51
2022/03/23 07:16:01;;;;;;;;;;;6.60;99.90;;;;;;5072648;28;19917;-51
2022/03/23 07:18:27;;;;;;;;;;;6.80;99.90;;;;;;5072344;28;19913;-52
2022/03/23 07:20:53;;;;;;;;;;;6.90;99.90;;;;;;5072534;28;19915;-51
2022/03/23 07:23:18;;;;;;;;;;;7.10;99.90;;;;;;5072840;28;19916;-51
2022/03/23 07:25:43;;;;;;;;;;;7.30;99.90;;;;;;5079004;28;19920;-51
2022/03/23 07:28:09;;;;;;;;;;;7.50;99.90;;;;;;5092680;28;19958;-51
2022/03/23 07:30:35;;;;;;;;;;;7.60;99.90;;;;;;5092925;28;19915;-51
2022/03/23 07:33:01;;;;;;;;;;;7.80;99.90;;;;;;5091744;28;19924;-51
2022/03/23 07:35:26;;;;;;;;;;;8.00;99.90;;;;;;5092506;28;20003;-49
2022/03/23 07:37:52;;;;;;;;;;;8.10;99.90;;;;;;5092480;28;19999;-52
2022/03/23 07:40:17;;;;;;;;;;;8.30;99.90;;;;;;5092320;28;19908;-51
2022/03/23 07:42:43;;;;;;;;;;;8.40;99.90;;;;;;5092976;28;19915;-49
2022/03/23 07:45:09;;;;;;;;;;;8.60;99.90;;;;;;5092201;28;19920;-52
2022/03/23 07:47:34;;;;;;;;;;;8.70;99.90;;;;;;5099347;28;19929;-51
2022/03/23 07:50:00;;;;;;;;;;;8.90;99.90;;;;;;5112839;28;19908;-52
2022/03/23 07:52:25;;;;;;;;;;;9.10;99.90;;;;;;5099075;28;19931;-51
2022/03/23 07:54:52;;;;;;;;;;;9.20;99.90;;;;;;5090508;28;19912;-52
2022/03/23 07:57:17;;;;;;;;;;;9.40;99.90;;;;;;5091644;28;19920;-52
2022/03/23 07:59:43;;;;;;;;;;;9.50;99.90;;;;;;5091727;28;19920;-52
2022/03/23 08:02:09;;;;;;;;;;;9.70;99.90;;;;;;5092674;28;20384;-53
2022/03/23 08:04:34;;;;;;;;;;;9.90;99.90;;;;;;5112870;28;19915;-53
2022/03/23 08:07:01;;;;;;;;;;;10.00;99.90;;;;;;5104433;28;19944;-52
2022/03/23 08:09:26;;;;;;;;;;;10.20;99.90;;;;;;5092660;28;19909;-52
2022/03/23 08:11:52;;;;;;;;;;;10.30;99.90;;;;;;5092375;28;19919;-53
2022/03/23 08:14:17;;;;;;;;;;;10.50;99.90;;;;;;5092119;28;19908;-53
2022/03/23 08:16:43;;;;;;;;;;;10.70;99.90;;;;;;5092379;28;19916;-53
2022/03/23 08:19:08;;;;;;;;;;;10.90;99.90;;;;;;5092210;28;19914;-53
2022/03/23 08:21:34;;;;;;;;;;;11.10;99.90;;;;;;5091950;28;19908;-53
2022/03/23 08:24:01;;;;;;;;;;;11.30;99.90;;;;;;5092003;28;19908;-53
2022/03/23 08:26:26;;;;;;;;;;;11.40;99.90;;;;;;5092157;28;19912;-53
2022/03/23 08:28:52;;;;;;;;;;;11.60;99.90;;;;;;5091675;28;19912;-53
2022/03/23 08:31:17;;;;;;;;;;;11.70;99.90;;;;;;5092280;28;19908;-54
2022/03/23 08:33:43;;;;;;;;;;;11.90;99.90;;;;;;5092312;28;19912;-53
2022/03/23 08:36:09;;;;;;;;;;;12.00;99.90;;;;;;5091572;28;19917;-54
2022/03/23 08:38:35;;;;;;;;;;;12.10;99.90;;;;;;5091358;28;20145;-53
2022/03/23 08:41:01;;;;;;;;;;;12.30;99.20;;;;;;5091932;28;19973;-53
2022/03/23 08:43:27;;;;;;;;;;;12.40;97.10;;;;;;5090010;28;20310;-54
2022/03/23 08:45:53;;;;;;;;;;;12.50;94.20;;;;;;5091931;28;19912;-53
2022/03/23 08:48:18;;;;;;;;;;;12.60;95.60;;;;;;5094432;28;19914;-53
2022/03/23 08:50:44;;;;;;;;;;;12.80;95.00;;;;;;5094836;28;19908;-54
2022/03/23 08:53:10;;;;;;;;;;;12.90;91.50;;;;;;5096506;28;19970;-54
2022/03/23 08:55:35;;;;;;;;;;;13.00;90.50;;;;;;5096326;28;20363;-54
2022/03/23 08:58:01;;;;;;;;;;;13.20;91.00;;;;;;5096059;28;19981;-54
2022/03/23 09:00:27;;;;;;;;;;;13.30;87.50;;;;;;5096336;28;19954;-54
2022/03/23 09:02:52;;;;;;;;;;;13.30;79.60;;;;;;5096318;28;20014;-52
2022/03/23 09:05:19;;;;;;;;;;;13.40;78.30;;;;;;5095670;28;19908;-53
2022/03/23 09:07:45;;;;;;;;;;;13.60;82.20;;;;;;5095775;28;20351;-52
2022/03/23 09:10:11;;;;;;;;;;;13.70;72.30;;;;;;5095706;28;19991;-54
2022/03/23 09:12:37;;;;;;;;;;;13.80;76.00;;;;;;5096241;28;19909;-52
2022/03/23 09:15:03;;;;;;;;;;;13.90;76.00;;;;;;5096243;28;20355;-52
2022/03/23 09:17:29;;;;;;;;;;;14.00;74.00;;;;;;5095416;28;19916;-52
2022/03/23 09:19:55;;;;;;;;;;;14.20;71.60;;;;;;5096111;28;19915;-51
2022/03/23 09:22:21;;;;;;;;;;;14.30;71.80;;;;;;5096004;28;19908;-49
2022/03/23 09:24:47;;;;;;;;;;;14.40;72.50;;;;;;5095436;28;20286;-52
2022/03/23 09:27:12;;;;;;;;;;;14.60;71.00;;;;;;5095952;28;19912;-51
2022/03/23 09:29:39;;;;;;;;;;;14.60;66.90;;;;;;5095836;28;20375;-51
2022/03/23 09:32:09;;;;;;;;;;;14.70;63.20;;;;;;5094981;28;19924;-49
2022/03/23 09:34:36;;;;;;;;;;;14.90;64.10;;;;;;5095785;28;20386;-53
2022/03/23 09:39:46;;;;;;;;;;;15.00;60.70;;;;;;5095307;28;19914;-50
2022/03/23 09:42:11;;;;;;;;;;;15.10;61.70;;;;;;5095762;28;19908;-53
2022/03/23 09:44:37;;;;;;;;;;;15.20;62.00;;;;;;5095491;28;20364;-53
2022/03/23 09:47:05;;;;;;;;;;;15.40;61.80;;;;;;5095126;28;19958;-52
2022/03/23 09:49:30;;;;;;;;;;;15.50;56.40;;;;;;5095401;28;20367;-53
2022/03/23 09:51:56;;;;;;;;;;;15.60;54.60;;;;;;5095564;28;19930;-53
2022/03/23 09:54:21;;;;;;;;;;;15.70;53.70;;;;;;5094828;28;19952;-52
2022/03/23 09:56:47;;;;;;;;;;;15.80;52.90;;;;;;5095087;28;20252;-53
2022/03/23 09:59:13;;;;;;;;;;;15.90;57.30;;;;;;5095171;28;19920;-55
2022/03/23 10:01:49;;;;;;;;;;;16.00;55.80;;;;;;5094677;28;20026;-53
2022/03/23 10:04:23;;;;;;;;;;;16.10;51.70;;;;;;5095166;28;20488;-52
2022/03/23 10:06:59;;;;;;;;;;;16.10;49.60;;;;;;5094791;28;19915;-53
2022/03/23 10:09:43;;;;;;;;;;;16.30;49.40;;;;;;5095040;28;19936;-52
2022/03/23 10:12:27;;;;;;;;;;;16.30;48.70;;;;;;5095151;28;19995;-53
2022/03/23 10:14:58;;;;;;;;;;;16.50;53.00;;;;;;5094483;28;19952;-53
2022/03/23 10:17:42;;;;;;;;;;;16.60;52.40;;;;;;5094831;28;19958;-53
2022/03/23 10:20:10;;;;;;;;;;;16.70;52.30;;;;;;5094904;28;19908;-53
2022/03/23 10:22:43;;;;;;;;;;;16.80;52.70;;;;;;5094339;28;19908;-53
2022/03/23 10:25:09;;;;;;;;;;;16.90;52.90;;;;;;5094857;28;19908;-53
2022/03/23 10:27:35;;;;;;;;;;;16.90;50.60;;;;;;5094083;28;19919;-54
2022/03/23 10:30:00;;;;;;;;;;;17.00;50.90;;;;;;5094728;28;19908;-53
2022/03/23 10:32:33;;;;;;;;;;;17.10;51.90;;;;;;5094267;28;19920;-53
2022/03/23 10:34:58;;;;;;;;;;;17.20;49.60;;;;;;5094262;28;19909;-53
2022/03/23 10:37:31;;;;;;;;;;;17.30;49.40;;;;;;5094498;28;19917;-53
2022/03/23 10:39:57;;;;;;;;;;;17.30;50.30;;;;;;5094656;28;19930;-54
2022/03/23 10:42:24;;;;;;;;;;;17.40;49.30;;;;;;5093859;28;19926;-53
2022/03/23 10:44:50;;;;;;;;;;;17.50;50.70;;;;;;5094337;28;19930;-53
2022/03/23 10:47:27;;;;;;;;;;;17.60;50.60;;;;;;5094381;28;19908;-53
2022/03/23 10:49:52;;;;;;;;;;;17.80;50.90;;;;;;5093855;28;19961;-53
2022/03/23 10:52:18;;;;;;;;;;;17.90;48.60;;;;;;5094273;28;20313;-52
2022/03/23 10:54:58;;;;;;;;;;;17.90;44.70;;;;;;5094306;28;20358;-53
2022/03/23 10:57:44;;;;;;;;;;;17.90;44.80;;;;;;5093527;28;19920;-53
2022/03/23 11:00:14;;;;;;;;;;;18.10;45.30;;;;;;5094213;28;19912;-54
2022/03/23 11:02:48;;;;;;;;;;;18.10;44.10;;;;;;5093392;28;20236;-52
2022/03/23 11:05:31;;;;;;;;;;;18.10;45.20;;;;;;5094044;28;19908;-53
2022/03/23 11:08:15;;;;;;;;;;;18.20;45.40;;;;;;5093549;28;19970;-53
2022/03/23 11:16:22;;;;;;;;;;;18.50;43.80;;;;;;5093976;28;19973;-53
2022/03/23 11:18:47;;;;;;;;;;;18.50;38.70;;;;;;5093430;28;19943;-53
2022/03/23 11:21:13;;;;;;;;;;;18.60;46.80;;;;;;5093853;28;20307;-54
2022/03/23 11:23:38;;;;;;;;;;;18.70;45.40;;;;;;5093684;28;19910;-54
2022/03/23 11:26:07;;;;;;;;;;;18.80;45.10;;;;;;5093549;28;19916;-54
2022/03/23 11:28:35;;;;;;;;;;;19.00;45.60;;;;;;5093596;28;19908;-53
2022/03/23 11:31:02;;;;;;;;;;;19.10;45.70;;;;;;5093098;28;19916;-54
2022/03/23 11:33:29;;;;;;;;;;;19.10;43.80;;;;;;5093625;28;19928;-53
2022/03/23 11:35:54;;;;;;;;;;;19.20;42.40;;;;;;5093461;28;20290;-54
2022/03/23 11:38:21;;;;;;;;;;;19.20;42.00;;;;;;5093172;28;19912;-53
2022/03/23 11:40:47;;;;;;;;;;;19.20;40.00;;;;;;5093602;28;19951;-53
2022/03/23 11:43:13;;;;;;;;;;;19.30;42.00;;;;;;5093447;28;19920;-52
2022/03/23 11:45:39;;;;;;;;;;;19.30;41.30;;;;;;5092898;28;20282;-53
2022/03/23 11:48:10;;;;;;;;;;;19.30;42.80;;;;;;5093646;28;19955;-53
2022/03/23 11:50:57;;;;;;;;;;;19.50;43.30;;;;;;5093510;28;19992;-52
2022/03/23 11:53:26;;;;;;;;;;;19.60;43.20;;;;;;5092961;28;19912;-54
2022/03/23 11:55:53;;;;;;;;;;;19.60;43.30;;;;;;5093308;28;19908;-54
2022/03/23 11:58:21;;;;;;;;;;;19.70;42.60;;;;;;5093326;28;19912;-53
2022/03/23 12:00:51;;;;;;;;;;;19.80;40.00;;;;;;5092942;28;19915;-53
2022/03/23 12:03:35;;;;;;;;;;;19.90;44.20;;;;;;5093436;28;19998;-53
2022/03/23 12:06:05;;;;;;;;;;;20.00;44.20;;;;;;5092856;28;19915;-52
2022/03/23 12:08:48;;;;;;;;;;;20.10;44.50;;;;;;5093377;28;19908;-54
2022/03/23 12:11:32;;;;;;;;;;;20.10;44.00;;;;;;5093375;28;19919;-53
2022/03/23 12:13:59;;;;;;;;;;;20.20;43.30;;;;;;5092924;28;19931;-53
2022/03/23 12:16:43;;;;;;;;;;;20.20;39.60;;;;;;5093125;28;20049;-52
2022/03/23 12:19:10;;;;;;;;;;;20.00;37.20;;;;;;5093394;28;19977;-52
2022/03/23 12:21:49;;;;;;;;;;;20.10;39.50;;;;;;5095176;28;19908;-54
2022/03/23 12:24:21;;;;;;;;;;;20.00;40.10;;;;;;5097057;28;19908;-52
2022/03/23 12:26:50;;;;;;;;;;;20.10;41.10;;;;;;5097020;28;19912;-53
2022/03/23 12:29:21;;;;;;;;;;;20.00;40.10;;;;;;5096646;28;19919;-53
2022/03/23 12:31:46;;;;;;;;;;;20.20;42.30;;;;;;5096860;28;19922;-54
2022/03/23 12:34:12;;;;;;;;;;;20.40;44.10;;;;;;5096585;28;20282;-53
2022/03/23 12:36:57;;;;;;;;;;;20.50;42.90;;;;;;5096729;28;20536;-54
2022/03/23 12:39:23;;;;;;;;;;;20.50;40.00;;;;;;5096865;28;20043;-54
2022/03/23 12:41:49;;;;;;;;;;;20.60;40.70;;;;;;5096253;28;20274;-52
2022/03/23 12:44:14;;;;;;;;;;;20.60;36.60;;;;;;5096706;28;19915;-52
2022/03/23 12:46:44;;;;;;;;;;;20.60;39.80;;;;;;5096838;28;19939;-53
2022/03/23 13:00:11;;;;;;;;;;;20.70;38.60;;;;;;5096550;28;19915;-53
2022/03/23 13:02:37;;;;;;;;;;;20.70;40.50;;;;;;5095765;28;20334;-54
2022/03/23 13:05:04;;;;;;;;;;;20.60;37.60;;;;;;5096491;28;19908;-53
2022/03/23 13:07:30;;;;;;;;;;;20.60;38.60;;;;;;5096295;28;19908;-52
2022/03/23 13:10:05;;;;;;;;;;;20.70;40.60;;;;;;5095791;28;20365;-53
2022/03/23 13:12:31;;;;;;;;;;;20.70;40.00;;;;;;5096197;28;19908;-53
2022/03/23 13:14:57;;;;;;;;;;;20.70;37.30;;;;;;5096153;28;19953;-54
2022/03/23 13:17:23;;;;;;;;;;;20.80;40.20;;;;;;5095511;28;20333;-53
2022/03/23 13:19:55;;;;;;;;;;;21.10;40.10;;;;;;5096217;28;19908;-53
2022/03/23 13:22:32;;;;;;;;;;;21.20;40.50;;;;;;5096088;28;19908;-54
2022/03/23 13:25:02;;;;;;;;;;;21.50;38.70;;;;;;5095438;28;19940;-53
2022/03/23 13:27:27;;;;;;;;;;;21.70;39.30;;;;;;5095897;28;20024;-53
2022/03/23 13:30:00;;;;;;;;;;;21.90;39.80;;;;;;5095924;28;19918;-54
2022/03/23 13:32:39;;;;;;;;;;;22.00;39.40;;;;;;5094442;28;19973;-53
2022/03/23 13:35:15;;;;;;;;;;;22.00;37.00;;;;;;5095793;28;19908;-54
2022/03/23 13:37:59;;;;;;;;;;;22.00;37.30;;;;;;5095187;28;19939;-54
2022/03/23 13:43:21;;;;;;;;;;;22.40;39.30;;;;;;5095887;28;20060;-54
2022/03/23 13:45:47;;;;;;;;;;;22.50;36.10;;;;;;5095110;28;20418;-54
2022/03/23 13:48:13;;;;;;;;;;;22.70;36.60;;;;;;5095436;28;20008;-55
2022/03/23 13:50:45;;;;;;;;;;;22.80;37.00;;;;;;5095474;28;19958;-55
2022/03/23 13:53:13;;;;;;;;;;;22.90;36.60;;;;;;5094971;28;19995;-55
2022/03/23 13:55:39;;;;;;;;;;;23.20;36.40;;;;;;5095251;28;19915;-54
2022/03/23 13:58:06;;;;;;;;;;;23.30;38.50;;;;;;5095355;28;19923;-55
2022/03/23 14:00:32;;;;;;;;;;;23.30;36.70;;;;;;5094701;28;19908;-55
2022/03/23 14:02:57;;;;;;;;;;;23.40;38.50;;;;;;5095189;28;19908;-55
2022/03/23 14:05:26;;;;;;;;;;;23.60;34.70;;;;;;5095131;28;20389;-55
2022/03/23 14:07:55;;;;;;;;;;;23.70;35.40;;;;;;5095155;28;20239;-55
2022/03/23 14:10:25;;;;;;;;;;;24.00;37.70;;;;;;5095065;28;19915;-55
2022/03/23 14:12:50;;;;;;;;;;;24.20;34.80;;;;;;5094628;28;20325;-55
2022/03/23 14:15:16;;;;;;;;;;;24.50;37.40;;;;;;5094925;28;19908;-55
2022/03/23 14:17:42;;;;;;;;;;;24.70;37.70;;;;;;5076748;28;19924;-55
2022/03/23 14:20:08;;;;;;;;;;;24.70;33.30;;;;;;5094551;28;19920;-55
2022/03/23 14:22:33;;;;;;;;;;;24.80;36.00;;;;;;5094785;28;19939;-55
2022/03/23 14:25:01;;;;;;;;;;;24.90;36.30;;;;;;5094754;28;19999;-55
2022/03/23 14:27:26;;;;;;;;;;;24.90;32.30;;;;;;5094292;28;19908;-54
2022/03/23 14:29:58;;;;;;;;;;;24.90;35.40;;;;;;5094595;28;19912;-55
2022/03/23 14:32:30;;;;;;;;;;;24.90;34.90;;;;;;5094437;28;19997;-55
2022/03/23 14:34:56;;;;;;;;;;;25.20;33.20;;;;;;5094200;28;19908;-55
2022/03/23 14:37:33;;;;;;;;;;;25.40;33.40;;;;;;5093637;28;22357;-55
2022/03/23 14:40:01;;;;;;;;;;;25.40;34.90;;;;;;5094641;28;19970;-55
2022/03/23 14:42:31;;;;;;;;;;;25.60;35.60;;;;;;5093561;28;19953;-55
2022/03/23 14:44:59;;;;;;;;;;;25.90;35.00;;;;;;5094131;28;20011;-55
2022/03/23 14:47:43;;;;;;;;;;;25.90;31.20;;;;;;5094379;28;20327;-55
2022/03/23 14:50:09;;;;;;;;;;;26.20;37.50;;;;;;5094402;28;19910;-55
2022/03/23 14:52:35;;;;;;;;;;;26.00;30.80;;;;;;5094285;28;19935;-55
2022/03/23 14:55:01;;;;;;;;;;;26.00;36.10;;;;;;5093719;28;19919;-55
2022/03/23 14:57:26;;;;;;;;;;;25.90;31.10;;;;;;5094082;28;19916;-55